Airfield :
LOGIN :

Register | Disclaimer

   EN    FR    IT 

 










Legend :    VFR   Marginal VFR   IFR   Intensive IFR   Very Intensive IFR
Visi :
Ceiling :
>= 8 km
>= 3000ft
5 to 8 km
1000 to 3000 ft
1500m to 5 km
500 to 1000 ft
800 to 1500m
200 to 500 ft
< 800m
< 200 ft
Symbols :   Thunderstorms  Fog  Heavy snow  Heavy precipitations  Wind > 20 kt
SIGMETs :     Misc.  Thunderstorms  Icing  Turbulence  Mountain Waves  Volcanic Ashes






- Airport Elevation : 584 ft


EPRA - Radom

CURRENT METAR :
  • 171130Z 31009KT 9999 FEW029 09/03 Q1002

EXPIRED METARs :
  • 171100Z 31010KT 270V330 9999 SCT028 09/04 Q1002
  • 171030Z 28009KT 250V310 9999 BKN026 09/04 Q1002
  • 171000Z 29005KT 250V360 9999 FEW027 SCT035 09/04 Q1002
  • 170930Z VRB04KT 9999 SCT020 09/04 Q1002
  • 170900Z VRB02KT CAVOK 08/04 Q1002
  • 170830Z 31004KT 260V010 CAVOK 07/04 Q1002
  • 170800Z 30005KT 270V330 CAVOK 06/03 Q1002
  • 170730Z 29005KT 260V320 CAVOK 06/03 Q1002
  • 170700Z 28005KT 260V320 CAVOK 06/03 Q1002

TAF TAF EPRA
Valid from the 17 at 09:00 until the 17 at 18:00 UTC


170830Z 1709/1718 31008KT CAVOK
PROB40
TEMPO 1709/1716 31015G25KT 6000 -SHRA BKN020CB



MET'MAP, your aeronautical weather chart ! - Copyright ORBIFLY December 2007 - Disclaimer

ORBIFLY MET'MAP TEAM :

Programming & Development : Alexandra Zaïnal
Original concept : Baudouin d'Aumeries
Technical & hardware support : Manuel Goepfert
Assistance : Marc-Olivier Méhu




SOURCES & CREDITS :

   NOAA